createdAt,value
2023-03-15T00:01:26.387Z,3.50
2023-03-15T00:03:55.363Z,3.40
2023-03-15T00:06:23.621Z,3.40
2023-03-15T00:08:53.730Z,3.40
2023-03-15T00:11:21.938Z,3.40
2023-03-15T00:13:51.566Z,3.30
2023-03-15T00:16:19.850Z,3.40
2023-03-15T00:18:48.331Z,3.40
2023-03-15T00:21:16.962Z,3.40
2023-03-15T00:23:45.214Z,3.50
2023-03-15T00:26:15.412Z,3.50
2023-03-15T00:28:44.182Z,3.50
2023-03-15T00:31:17.674Z,3.40
2023-03-15T00:33:45.946Z,3.30
2023-03-15T00:36:14.548Z,3.40
2023-03-15T00:38:45.099Z,3.40
2023-03-15T00:41:17.210Z,3.40
2023-03-15T00:43:46.252Z,3.50
2023-03-15T00:46:15.416Z,3.50
2023-03-15T00:48:43.942Z,3.60
2023-03-15T00:51:15.111Z,3.60
2023-03-15T00:53:45.334Z,3.60
2023-03-15T00:56:18.384Z,3.60
2023-03-15T00:58:47.503Z,3.60
2023-03-15T01:01:19.969Z,3.70
2023-03-15T01:03:48.841Z,3.70
2023-03-15T01:06:19.105Z,3.70
2023-03-15T01:08:47.675Z,3.70
2023-03-15T01:11:19.932Z,3.70
2023-03-15T01:13:48.332Z,3.70
2023-03-15T01:16:17.007Z,3.70
2023-03-15T01:18:45.309Z,3.70
2023-03-15T01:21:16.039Z,3.70
2023-03-15T01:23:46.044Z,3.70
2023-03-15T01:26:18.092Z,3.70
2023-03-15T01:28:46.486Z,3.70
2023-03-15T01:31:20.415Z,3.70
2023-03-15T01:33:48.925Z,3.70
2023-03-15T01:36:17.203Z,3.70
2023-03-15T01:38:45.821Z,3.70
2023-03-15T01:41:16.767Z,3.70
2023-03-15T01:43:47.444Z,3.70
2023-03-15T01:46:26.005Z,3.80
2023-03-15T01:49:02.365Z,3.80
2023-03-15T01:51:38.674Z,3.80
2023-03-15T01:54:12.032Z,3.80
2023-03-15T01:56:47.716Z,3.80
2023-03-15T01:59:21.523Z,3.70
2023-03-15T02:01:50.323Z,3.70
2023-03-15T02:04:25.079Z,3.70
2023-03-15T02:06:59.154Z,3.60
2023-03-15T02:09:35.798Z,3.50
2023-03-15T02:12:06.915Z,3.50
2023-03-15T02:14:35.652Z,3.60
2023-03-15T02:17:04.139Z,3.50
2023-03-15T02:19:43.821Z,3.40
2023-03-15T02:22:24.588Z,3.40
2023-03-15T02:25:00.937Z,3.40
2023-03-15T02:27:34.493Z,3.40
2023-03-15T02:30:05.584Z,3.30
2023-03-15T02:32:33.788Z,3.30
2023-03-15T02:35:01.983Z,3.30
2023-03-15T02:37:30.166Z,3.30
2023-03-15T02:39:58.302Z,3.30
2023-03-15T02:42:27.463Z,3.20
2023-03-15T02:44:58.817Z,3.20
2023-03-15T02:47:31.663Z,3.20
2023-03-15T02:49:59.875Z,3.20
2023-03-15T02:52:28.161Z,3.20
2023-03-15T02:54:56.350Z,3.20
2023-03-15T02:57:24.546Z,3.20
2023-03-15T02:59:54.935Z,3.20
2023-03-15T03:02:24.837Z,3.20
2023-03-15T03:04:53.706Z,3.20
2023-03-15T03:07:21.903Z,3.20
2023-03-15T03:09:50.043Z,3.20
2023-03-15T03:12:18.241Z,3.20
2023-03-15T03:14:46.439Z,3.10
2023-03-15T03:17:14.716Z,3.10
2023-03-15T03:19:44.470Z,3.10
2023-03-15T03:22:13.323Z,3.10
2023-03-15T03:24:46.020Z,3.10
2023-03-15T03:27:15.971Z,3.10
2023-03-15T03:29:44.795Z,3.00
2023-03-15T03:32:13.457Z,3.00
2023-03-15T03:34:48.523Z,2.90
2023-03-15T03:37:18.578Z,2.90
2023-03-15T03:39:47.215Z,2.90
2023-03-15T03:42:16.036Z,2.80
2023-03-15T03:44:44.213Z,2.70
2023-03-15T03:47:12.809Z,2.70
2023-03-15T03:49:40.995Z,2.70
2023-03-15T03:52:10.899Z,2.70
2023-03-15T03:54:39.082Z,2.60
2023-03-15T03:57:07.222Z,2.60
2023-03-15T03:59:35.425Z,2.60
2023-03-15T04:02:03.624Z,2.60
2023-03-15T04:04:31.980Z,2.60
2023-03-15T04:07:00.189Z,2.60
2023-03-15T04:09:29.741Z,2.60
2023-03-15T04:11:57.921Z,2.60
2023-03-15T04:14:26.347Z,2.60
2023-03-15T04:16:54.698Z,2.60
2023-03-15T04:19:23.190Z,2.60
2023-03-15T04:21:52.477Z,2.60
2023-03-15T04:24:20.748Z,2.60
2023-03-15T04:26:50.249Z,2.60
2023-03-15T04:29:18.427Z,2.70
2023-03-15T04:31:46.577Z,2.70
2023-03-15T04:34:14.763Z,2.70
2023-03-15T04:36:43.657Z,2.70
2023-03-15T04:39:12.643Z,2.70
2023-03-15T04:41:40.845Z,2.70
2023-03-15T04:44:10.344Z,2.70
2023-03-15T04:46:38.610Z,2.60
2023-03-15T04:49:06.789Z,2.70
2023-03-15T04:51:35.397Z,2.70
2023-03-15T04:54:04.193Z,2.70
2023-03-15T04:56:32.562Z,2.70
2023-03-15T04:59:00.750Z,2.70
2023-03-15T05:01:32.694Z,2.80
2023-03-15T05:04:01.006Z,2.80
2023-03-15T05:06:29.923Z,2.80
2023-03-15T05:08:58.161Z,2.80
2023-03-15T05:11:26.574Z,2.80
2023-03-15T05:13:54.866Z,2.80
2023-03-15T05:16:23.118Z,2.80
2023-03-15T05:18:53.945Z,2.80
2023-03-15T05:21:22.171Z,2.70
2023-03-15T05:23:50.331Z,2.70
2023-03-15T05:26:18.481Z,2.70
2023-03-15T05:28:46.663Z,2.70
2023-03-15T05:31:14.805Z,2.70
2023-03-15T05:33:46.952Z,2.60
2023-03-15T05:36:18.377Z,2.60
2023-03-15T05:38:46.585Z,2.60
2023-03-15T05:41:17.894Z,2.60
2023-03-15T05:43:46.241Z,2.60
2023-03-15T05:46:14.737Z,2.60
2023-03-15T05:48:43.448Z,2.60
2023-03-15T05:51:13.151Z,2.50
2023-03-15T05:53:45.269Z,2.50
2023-03-15T05:56:14.522Z,2.50
2023-03-15T05:58:42.687Z,2.60
2023-03-15T06:01:10.916Z,2.50
2023-03-15T06:03:39.202Z,2.50
2023-03-15T06:06:08.083Z,2.50
2023-03-15T06:08:36.360Z,2.50
2023-03-15T06:11:05.953Z,2.50
2023-03-15T06:13:34.281Z,2.60
2023-03-15T06:16:02.457Z,2.50
2023-03-15T06:18:31.041Z,2.50
2023-03-15T06:20:59.289Z,2.50
2023-03-15T06:23:27.492Z,2.50
2023-03-15T06:25:55.710Z,2.60
2023-03-15T06:28:25.281Z,2.50
2023-03-15T06:30:53.630Z,2.50
2023-03-15T06:33:21.999Z,2.50
2023-03-15T06:35:50.672Z,2.60
2023-03-15T06:38:18.993Z,2.60
2023-03-15T06:40:47.201Z,2.50
2023-03-15T06:43:19.463Z,2.60
2023-03-15T06:45:49.201Z,2.60
2023-03-15T06:48:17.755Z,2.60
2023-03-15T06:50:47.655Z,2.60
2023-03-15T06:53:16.766Z,2.60
2023-03-15T06:55:45.468Z,2.60
2023-03-15T06:58:14.491Z,2.60
2023-03-15T07:00:43.003Z,2.60
2023-03-15T07:03:12.581Z,2.60
2023-03-15T07:05:40.739Z,2.70
2023-03-15T07:08:09.011Z,2.70
2023-03-15T07:10:37.512Z,2.70
2023-03-15T07:13:06.901Z,2.70
2023-03-15T07:15:37.414Z,2.70
2023-03-15T07:18:05.730Z,2.80
2023-03-15T07:20:37.718Z,2.80
2023-03-15T07:23:06.154Z,2.90
2023-03-15T07:25:44.990Z,2.90
2023-03-15T07:28:20.558Z,2.90
2023-03-15T07:30:55.662Z,3.00
2023-03-15T07:33:24.448Z,3.10
2023-03-15T07:35:54.785Z,3.10
2023-03-15T07:38:24.408Z,3.20
2023-03-15T07:40:52.956Z,3.30
2023-03-15T07:43:21.548Z,3.40
2023-03-15T07:45:49.891Z,3.50
2023-03-15T07:48:18.304Z,3.60
2023-03-15T07:50:47.482Z,3.60
2023-03-15T07:53:17.151Z,3.70
2023-03-15T07:55:45.305Z,3.70
2023-03-15T07:58:13.492Z,3.70
2023-03-15T08:00:41.775Z,3.80
2023-03-15T08:03:10.147Z,3.90
2023-03-15T08:05:38.496Z,4.00
2023-03-15T08:08:07.468Z,4.20
2023-03-15T08:10:37.022Z,4.20
2023-03-15T08:13:05.289Z,4.30
2023-03-15T08:15:33.553Z,4.50
2023-03-15T08:18:01.819Z,4.50
2023-03-15T08:20:30.380Z,4.60
2023-03-15T08:22:58.574Z,4.60
2023-03-15T08:25:27.508Z,4.60
2023-03-15T08:27:57.046Z,4.70
2023-03-15T08:30:25.375Z,4.70
2023-03-15T08:32:53.648Z,4.80
2023-03-15T08:35:23.399Z,4.90
2023-03-15T08:37:52.862Z,5.20
2023-03-15T08:40:25.245Z,5.50
2023-03-15T08:42:56.256Z,5.70
2023-03-15T08:45:25.017Z,5.80
2023-03-15T08:47:56.932Z,6.00
2023-03-15T08:50:26.558Z,6.20
2023-03-15T08:52:55.371Z,6.20
2023-03-15T08:55:23.689Z,6.10
2023-03-15T08:57:51.978Z,6.10
2023-03-15T09:00:22.890Z,6.20
2023-03-15T09:02:51.936Z,6.50
2023-03-15T09:05:21.257Z,6.80
2023-03-15T09:07:50.248Z,7.00
2023-03-15T09:10:19.342Z,7.00
2023-03-15T09:12:53.587Z,6.90
2023-03-15T09:15:23.408Z,6.80
2023-03-15T09:17:52.545Z,7.00
2023-03-15T09:20:22.914Z,7.20
2023-03-15T09:22:53.645Z,7.30
2023-03-15T09:25:23.172Z,7.50
2023-03-15T09:27:52.037Z,7.50
2023-03-15T09:30:22.254Z,7.40
2023-03-15T09:32:51.444Z,7.60
2023-03-15T09:35:21.658Z,7.80
2023-03-15T09:37:51.340Z,7.70
2023-03-15T09:40:23.900Z,7.80
2023-03-15T09:43:03.388Z,7.50
2023-03-15T09:45:55.179Z,7.20
2023-03-15T09:48:29.440Z,7.10
2023-03-15T09:51:05.676Z,7.20
2023-03-15T09:53:38.766Z,7.50
2023-03-15T09:56:22.511Z,7.60
2023-03-15T09:58:52.937Z,7.70
2023-03-15T10:01:28.978Z,7.90
2023-03-15T10:03:57.377Z,8.30
2023-03-15T10:06:36.526Z,8.50
2023-03-15T10:09:15.043Z,8.60
2023-03-15T10:11:51.190Z,8.70
2023-03-15T10:14:33.777Z,8.60
2023-03-15T10:17:10.890Z,8.70
2023-03-15T10:19:48.004Z,9.00
2023-03-15T10:22:25.709Z,9.10
2023-03-15T10:24:58.811Z,8.80
2023-03-15T10:27:33.834Z,8.70
2023-03-15T10:30:02.988Z,8.80
2023-03-15T10:32:42.529Z,8.70
2023-03-15T10:35:17.230Z,8.70
2023-03-15T10:37:45.747Z,8.60
2023-03-15T10:40:16.701Z,8.70
2023-03-15T10:42:46.444Z,9.00
2023-03-15T10:45:22.711Z,9.00
2023-03-15T10:48:00.327Z,8.70
2023-03-15T10:50:32.280Z,8.50
2023-03-15T10:53:02.753Z,8.30
2023-03-15T10:55:34.225Z,8.10
2023-03-15T10:58:22.409Z,7.80
2023-03-15T11:00:53.899Z,7.60
2023-03-15T11:03:24.836Z,7.70
2023-03-15T11:05:55.804Z,7.90
2023-03-15T11:08:26.598Z,8.30
2023-03-15T11:11:00.938Z,8.70
2023-03-15T11:13:31.301Z,9.20
2023-03-15T11:16:04.470Z,9.70
2023-03-15T11:18:39.234Z,10.00
2023-03-15T11:21:14.092Z,10.00
2023-03-15T11:23:47.463Z,10.20
2023-03-15T11:26:32.301Z,10.70
2023-03-15T11:29:05.518Z,10.80
2023-03-15T11:31:35.021Z,11.30
2023-03-15T11:34:09.436Z,11.10
2023-03-15T11:36:45.352Z,10.70
2023-03-15T11:39:17.307Z,10.40
2023-03-15T11:41:48.944Z,10.10
2023-03-15T11:44:28.498Z,10.60
2023-03-15T11:47:03.264Z,10.30
2023-03-15T11:49:39.039Z,9.80
2023-03-15T11:52:08.479Z,9.70
2023-03-15T11:54:37.433Z,9.30
2023-03-15T11:57:08.687Z,9.50
2023-03-15T11:59:40.050Z,10.10
2023-03-15T12:02:38.473Z,10.50
2023-03-15T12:05:17.928Z,10.60
2023-03-15T12:08:17.681Z,10.50
2023-03-15T12:10:47.940Z,10.70
2023-03-15T12:13:24.848Z,10.80
2023-03-15T12:15:54.097Z,10.50
2023-03-15T12:18:33.573Z,10.40
2023-03-15T12:21:16.155Z,10.70
2023-03-15T12:23:49.703Z,11.00
2023-03-15T12:26:28.552Z,11.20
2023-03-15T12:29:16.058Z,11.20
2023-03-15T12:32:04.041Z,11.20
2023-03-15T12:34:43.681Z,11.40
2023-03-15T12:37:20.239Z,11.60
2023-03-15T12:39:51.886Z,11.60
2023-03-15T12:43:02.215Z,11.40
2023-03-15T12:45:41.580Z,11.20
2023-03-15T12:48:25.288Z,11.30
2023-03-15T12:51:03.851Z,11.20
2023-03-15T12:53:51.071Z,11.40
2023-03-15T12:56:36.259Z,11.40
2023-03-15T12:59:21.459Z,11.40
2023-03-15T13:01:51.408Z,11.30
2023-03-15T13:04:19.891Z,11.20
2023-03-15T13:07:09.103Z,11.00
2023-03-15T13:10:02.301Z,11.00
2023-03-15T13:12:40.655Z,11.00
2023-03-15T13:15:14.796Z,10.70
2023-03-15T13:17:49.189Z,10.60
2023-03-15T13:20:44.148Z,10.60
2023-03-15T13:23:18.971Z,10.30
2023-03-15T13:26:03.800Z,10.30
2023-03-15T13:28:42.463Z,10.50
2023-03-15T13:31:21.152Z,10.40
2023-03-15T13:33:50.676Z,10.50
2023-03-15T13:36:20.655Z,10.70
2023-03-15T13:38:52.396Z,10.80
2023-03-15T13:41:25.057Z,10.70
2023-03-15T13:43:55.704Z,10.60
2023-03-15T13:46:26.804Z,10.50
2023-03-15T13:48:56.138Z,10.30
2023-03-15T13:51:30.136Z,10.40
2023-03-15T13:54:05.888Z,10.40
2023-03-15T13:56:49.344Z,10.30
2023-03-15T13:59:19.154Z,10.20
2023-03-15T14:01:47.512Z,10.30
2023-03-15T14:04:19.294Z,10.20
2023-03-15T14:06:48.090Z,10.30
2023-03-15T14:09:23.868Z,10.10
2023-03-15T14:12:08.415Z,10.10
2023-03-15T14:14:40.022Z,10.00
2023-03-15T14:17:19.583Z,10.00
2023-03-15T14:19:55.450Z,9.90
2023-03-15T14:22:24.274Z,9.90
2023-03-15T14:24:53.854Z,10.00
2023-03-15T14:27:27.371Z,10.10
2023-03-15T14:29:58.965Z,10.10
2023-03-15T14:32:30.988Z,9.90
2023-03-15T14:35:03.646Z,9.80
2023-03-15T14:37:38.226Z,9.80
2023-03-15T14:40:34.761Z,9.80
2023-03-15T14:43:06.361Z,9.80
2023-03-15T14:45:36.494Z,9.80
2023-03-15T14:48:08.996Z,9.70
2023-03-15T14:50:40.803Z,9.80
2023-03-15T14:53:14.218Z,9.90
2023-03-15T14:55:42.512Z,9.90
2023-03-15T14:58:14.784Z,9.80
2023-03-15T15:00:43.672Z,9.80
2023-03-15T15:03:19.673Z,9.80
2023-03-15T15:05:48.361Z,9.80
2023-03-15T15:08:22.218Z,9.80
2023-03-15T15:10:53.619Z,9.80
2023-03-15T15:13:25.833Z,9.80
2023-03-15T15:15:56.464Z,9.60
2023-03-15T15:18:27.090Z,9.40
2023-03-15T15:20:57.403Z,9.40
2023-03-15T15:23:28.606Z,9.20
2023-03-15T15:25:59.923Z,9.20
2023-03-15T15:28:36.601Z,9.10
2023-03-15T15:31:07.743Z,9.20
2023-03-15T15:33:36.499Z,9.20
2023-03-15T15:36:05.223Z,9.20
2023-03-15T15:38:38.752Z,9.20
2023-03-15T15:41:13.690Z,9.10
2023-03-15T15:43:44.155Z,9.00
2023-03-15T15:46:13.886Z,9.10
2023-03-15T15:48:42.659Z,9.00
2023-03-15T15:51:22.646Z,9.00
2023-03-15T15:53:51.380Z,9.00
2023-03-15T15:56:19.710Z,9.00
2023-03-15T15:58:50.412Z,8.90
2023-03-15T16:01:18.827Z,8.90
2023-03-15T16:03:47.124Z,8.90
2023-03-15T16:06:19.758Z,8.90
2023-03-15T16:08:49.336Z,8.80
2023-03-15T16:11:19.438Z,8.70
2023-03-15T16:13:51.856Z,8.70
2023-03-15T16:16:20.377Z,8.70
2023-03-15T16:18:48.787Z,8.60
2023-03-15T16:21:22.096Z,8.60
2023-03-15T16:23:56.432Z,8.50
2023-03-15T16:26:24.896Z,8.40
2023-03-15T16:28:54.495Z,8.40
2023-03-15T16:31:23.139Z,8.30
2023-03-15T16:33:51.550Z,8.30
2023-03-15T16:36:21.217Z,8.20
2023-03-15T16:38:49.614Z,8.20
2023-03-15T16:41:19.088Z,8.20
2023-03-15T16:43:49.193Z,8.20
2023-03-15T16:46:20.277Z,8.20
2023-03-15T16:48:48.491Z,8.10
2023-03-15T16:51:17.699Z,8.00
2023-03-15T16:53:46.113Z,8.00
2023-03-15T16:56:16.434Z,7.90
2023-03-15T16:58:45.543Z,7.90
2023-03-15T17:01:14.090Z,7.90
2023-03-15T17:03:44.191Z,7.80
2023-03-15T17:06:20.394Z,7.80
2023-03-15T17:08:49.582Z,7.80
2023-03-15T17:11:19.442Z,7.70
2023-03-15T17:13:48.351Z,7.70
2023-03-15T17:16:17.722Z,7.60
2023-03-15T17:18:48.715Z,7.60
2023-03-15T17:21:20.093Z,7.60
2023-03-15T17:23:49.601Z,7.50
2023-03-15T17:26:21.039Z,7.50
2023-03-15T17:28:49.873Z,7.40
2023-03-15T17:31:25.014Z,7.30
2023-03-15T17:33:55.523Z,7.30
2023-03-15T17:36:26.746Z,7.20
2023-03-15T17:38:55.608Z,7.20
2023-03-15T17:41:28.442Z,7.10
2023-03-15T17:43:57.126Z,7.10
2023-03-15T17:46:30.301Z,7.10
2023-03-15T17:49:01.107Z,7.00
2023-03-15T17:51:33.213Z,7.00
2023-03-15T17:54:02.892Z,6.80
2023-03-15T17:56:32.857Z,6.80
2023-03-15T17:59:01.676Z,6.80
2023-03-15T18:01:30.653Z,6.70
2023-03-15T18:04:01.168Z,6.70
2023-03-15T18:06:30.238Z,6.70
2023-03-15T18:08:59.071Z,6.60
2023-03-15T18:11:32.038Z,6.60
2023-03-15T18:14:01.635Z,6.50
2023-03-15T18:16:31.199Z,6.40
2023-03-15T18:19:01.697Z,6.40
2023-03-15T18:21:30.707Z,6.40
2023-03-15T18:23:59.460Z,6.40
2023-03-15T18:26:28.313Z,6.30
2023-03-15T18:28:57.110Z,6.30
2023-03-15T18:31:27.812Z,6.20
2023-03-15T18:33:57.064Z,6.20
2023-03-15T18:36:27.064Z,6.10
2023-03-15T18:38:55.785Z,6.10
2023-03-15T18:41:26.453Z,6.10
2023-03-15T18:43:54.721Z,6.00
2023-03-15T18:46:26.187Z,6.00
2023-03-15T18:48:55.466Z,6.00
2023-03-15T18:51:28.221Z,6.10
2023-03-15T18:53:57.575Z,6.10
2023-03-15T18:56:28.006Z,6.10
2023-03-15T18:58:56.435Z,6.10
2023-03-15T19:01:25.470Z,6.00
2023-03-15T19:03:54.965Z,6.00
2023-03-15T19:06:24.247Z,6.00
2023-03-15T19:08:54.535Z,6.00
2023-03-15T19:11:24.512Z,6.00
2023-03-15T19:13:52.897Z,5.90
2023-03-15T19:16:22.509Z,6.00
2023-03-15T19:18:51.977Z,6.00
2023-03-15T19:21:21.256Z,6.00
2023-03-15T19:23:49.903Z,6.00
2023-03-15T19:26:19.521Z,6.00
2023-03-15T19:28:47.751Z,6.00
2023-03-15T19:31:16.175Z,6.00
2023-03-15T19:33:44.506Z,6.00
2023-03-15T19:36:12.848Z,5.90
2023-03-15T19:38:41.172Z,5.90
2023-03-15T19:41:12.822Z,5.90
2023-03-15T19:43:43.620Z,5.90
2023-03-15T19:46:14.129Z,5.90
2023-03-15T19:48:42.664Z,5.90
2023-03-15T19:51:10.924Z,5.90
2023-03-15T19:53:39.181Z,5.90
2023-03-15T19:56:09.571Z,5.80
2023-03-15T19:58:37.801Z,5.80
2023-03-15T20:01:07.616Z,5.80
2023-03-15T20:03:35.936Z,5.80
2023-03-15T20:06:09.557Z,5.70
2023-03-15T20:08:38.021Z,5.80
2023-03-15T20:11:07.749Z,5.70
2023-03-15T20:13:36.889Z,5.70
2023-03-15T20:16:07.761Z,5.70
2023-03-15T20:18:35.993Z,5.70
2023-03-15T20:21:04.778Z,5.70
2023-03-15T20:23:33.467Z,5.60
2023-03-15T20:26:07.244Z,5.60
2023-03-15T20:28:35.503Z,5.60
2023-03-15T20:31:09.755Z,5.60
2023-03-15T20:33:38.254Z,5.50
2023-03-15T20:36:07.996Z,5.50
2023-03-15T20:38:37.251Z,5.50
2023-03-15T20:41:07.152Z,5.50
2023-03-15T20:43:35.717Z,5.50
2023-03-15T20:46:04.882Z,5.50
2023-03-15T20:48:36.461Z,5.50
2023-03-15T20:51:06.027Z,5.50
2023-03-15T20:53:36.426Z,5.50
2023-03-15T20:56:06.422Z,5.50
2023-03-15T20:58:35.517Z,5.40
2023-03-15T21:01:07.059Z,5.50
2023-03-15T21:03:38.404Z,5.50
2023-03-15T21:06:09.023Z,5.40
2023-03-15T21:08:39.143Z,5.40
2023-03-15T21:11:11.119Z,5.40
2023-03-15T21:13:42.489Z,5.40
2023-03-15T21:16:13.797Z,5.30
2023-03-15T21:18:48.041Z,5.30
2023-03-15T21:21:18.554Z,5.30
2023-03-15T21:23:47.789Z,5.30
2023-03-15T21:26:19.369Z,5.20
2023-03-15T21:28:48.564Z,5.20
2023-03-15T21:31:17.978Z,5.20
2023-03-15T21:33:50.673Z,5.20
2023-03-15T21:36:19.961Z,5.20
2023-03-15T21:38:48.967Z,5.20
2023-03-15T21:41:18.034Z,5.20
2023-03-15T21:43:47.001Z,5.10
2023-03-15T21:46:16.493Z,5.10
2023-03-15T21:48:45.268Z,5.20
2023-03-15T21:51:15.412Z,5.10
2023-03-15T21:53:46.262Z,5.10
2023-03-15T21:56:14.693Z,5.10
2023-03-15T21:58:43.138Z,5.10
2023-03-15T22:01:14.040Z,5.10
2023-03-15T22:03:44.229Z,5.10
2023-03-15T22:06:14.089Z,5.10
2023-03-15T22:08:42.680Z,5.10
2023-03-15T22:11:10.924Z,5.00
2023-03-15T22:13:39.850Z,5.00
2023-03-15T22:16:08.889Z,4.90
2023-03-15T22:18:37.315Z,5.00
2023-03-15T22:21:05.950Z,4.90
2023-03-15T22:23:35.692Z,4.90
2023-03-15T22:26:03.936Z,4.90
2023-03-15T22:28:33.106Z,4.90
2023-03-15T22:31:01.639Z,4.80
2023-03-15T22:33:29.886Z,4.80
2023-03-15T22:35:59.798Z,4.80
2023-03-15T22:38:28.167Z,4.70
2023-03-15T22:41:07.438Z,4.70
2023-03-15T22:43:36.049Z,4.70
2023-03-15T22:46:04.608Z,4.70
2023-03-15T22:48:33.251Z,4.70
2023-03-15T22:51:03.720Z,4.70
2023-03-15T22:53:33.598Z,4.70
2023-03-15T22:56:03.758Z,4.70
2023-03-15T22:58:32.144Z,4.70
2023-03-15T23:01:00.542Z,4.60
2023-03-15T23:03:29.393Z,4.70
2023-03-15T23:05:57.759Z,4.70
2023-03-15T23:08:26.219Z,4.70
2023-03-15T23:10:57.034Z,4.70
2023-03-15T23:13:26.686Z,4.70
2023-03-15T23:15:55.327Z,4.60
2023-03-15T23:18:23.632Z,4.60
2023-03-15T23:20:51.815Z,4.60
2023-03-15T23:23:19.999Z,4.60
2023-03-15T23:25:48.240Z,4.50
2023-03-15T23:28:17.853Z,4.50
2023-03-15T23:30:47.417Z,4.50
2023-03-15T23:33:15.608Z,4.50
2023-03-15T23:35:43.791Z,4.50
2023-03-15T23:38:13.570Z,4.50
2023-03-15T23:40:41.737Z,4.50
2023-03-15T23:43:09.990Z,4.40
2023-03-15T23:45:38.192Z,4.40
2023-03-15T23:48:08.294Z,4.40
2023-03-15T23:50:38.559Z,4.40
2023-03-15T23:53:06.976Z,4.40
2023-03-15T23:55:35.166Z,4.40
2023-03-15T23:58:06.720Z,4.40
